Time;durP1;ratioP1;P1;durP2;ratioP2;P2;SDS_P1;SDS_P2;PMS_P1;PMS_P2;Temp;Humidity;BMP_temperature;BMP_pressure;BME280_temperature;BME280_humidity;BME280_pressure;Samples;Min_cycle;Max_cycle;Signal;HPM_P1;HPM_P2
2021/07/21 00:00:10;;;;;;;7.03;6.33;;;;;;;16.57;57.54;99764.59;5054533;28;20233;-89
2021/07/21 00:02:38;;;;;;;7.73;6.47;;;;;;;16.52;57.61;99764.53;5055066;28;20233;-88
2021/07/21 00:05:09;;;;;;;10.40;5.97;;;;;;;16.50;58.03;99765.88;5054864;28;20237;-90
2021/07/21 00:07:36;;;;;;;7.87;6.00;;;;;;;16.34;57.77;99747.84;5038195;28;20229;-90
2021/07/21 00:10:04;;;;;;;6.43;5.83;;;;;;;16.40;58.24;99761.19;5054026;28;20240;-90
2021/07/21 00:15:18;;;;;;;7.53;6.20;;;;;;;16.28;58.51;99755.13;5040771;28;20268;-91
2021/07/21 00:17:45;;;;;;;6.60;5.67;;;;;;;16.22;58.35;99753.41;5054786;28;20642;-93
2021/07/21 00:20:15;;;;;;;7.83;6.53;;;;;;;16.21;58.24;99751.78;5054212;28;20291;-93
2021/07/21 00:22:44;;;;;;;6.40;5.80;;;;;;;16.22;58.54;99753.41;5038880;28;20228;-93
2021/07/21 00:25:13;;;;;;;6.93;6.17;;;;;;;16.09;58.73;99745.69;5038620;28;20621;-93
2021/07/21 00:27:44;;;;;;;6.70;6.00;;;;;;;16.11;59.27;99759.75;5054917;28;20276;-92
2021/07/21 00:30:14;;;;;;;6.63;5.87;;;;;;;16.06;59.48;99763.22;5054900;28;20240;-91
2021/07/21 00:32:41;;;;;;;7.67;6.57;;;;;;;15.98;60.50;99758.25;5038299;28;20221;-91
2021/07/21 00:35:11;;;;;;;6.27;5.53;;;;;;;15.91;60.36;99757.63;5055078;28;20283;-92
2021/07/21 00:37:38;;;;;;;7.47;6.27;;;;;;;15.89;60.58;99756.25;5054247;28;20329;-92
2021/07/21 00:40:06;;;;;;;6.90;6.20;;;;;;;15.88;60.76;99760.84;5054749;28;20288;-91
2021/07/21 00:42:33;;;;;;;7.43;6.67;;;;;;;15.79;60.72;99765.88;5038258;28;20225;-91
2021/07/21 00:45:00;;;;;;;7.67;6.40;;;;;;;15.78;60.50;99758.81;5055046;28;20248;-92
2021/07/21 00:47:27;;;;;;;6.97;6.37;;;;;;;15.73;60.78;99758.75;5054319;28;20563;-92
2021/07/21 00:49:56;;;;;;;8.37;6.77;;;;;;;15.64;60.85;99760.25;5055117;28;20320;-91
2021/07/21 00:52:23;;;;;;;7.53;6.63;;;;;;;15.63;61.19;99760.53;5054027;28;20235;-92
2021/07/21 00:54:50;;;;;;;7.60;6.90;;;;;;;15.63;61.03;99763.22;5054457;28;20221;-93
2021/07/21 00:57:17;;;;;;;8.67;6.93;;;;;;;15.70;61.03;99761.13;5054535;28;20233;-93
2021/07/21 00:59:44;;;;;;;8.30;6.30;;;;;;;15.71;60.65;99763.59;5038120;28;20232;-91
2021/07/21 01:02:11;;;;;;;7.30;6.60;;;;;;;15.64;61.03;99764.84;5054525;28;20221;-91
2021/07/21 01:04:39;;;;;;;8.20;6.70;;;;;;;15.53;61.28;99755.78;5054266;28;20226;-91
2021/07/21 01:07:07;;;;;;;8.07;7.13;;;;;;;15.56;61.39;99768.78;5054644;28;20243;-91
2021/07/21 01:09:38;;;;;;;8.30;6.80;;;;;;;15.54;61.39;99773.59;5038076;28;20251;-92
2021/07/21 01:12:25;;;;;;;9.27;6.60;;;;;;;15.53;60.93;99772.00;5037831;28;20225;-92
2021/07/21 01:15:09;;;;;;;8.13;7.13;;;;;;;15.47;61.32;99767.53;5054153;28;20229;-93
2021/07/21 01:17:46;;;;;;;7.43;6.67;;;;;;;15.46;61.41;99774.00;5054537;28;20297;-92
2021/07/21 01:20:25;;;;;;;7.47;6.43;;;;;;;15.50;61.51;99771.63;5054257;28;20229;-93
2021/07/21 01:23:07;;;;;;;7.50;6.80;;;;;;;15.44;61.88;99768.84;5054381;28;20279;-93
2021/07/21 01:25:41;;;;;;;7.77;6.93;;;;;;;15.46;61.53;99768.59;5037770;28;20225;-91
2021/07/21 01:28:13;;;;;;;9.33;7.47;;;;;;;15.58;60.86;99761.25;5039196;28;20240;-91
2021/07/21 01:30:50;;;;;;;8.40;7.60;;;;;;;15.70;60.24;99774.66;5054057;28;20239;-92
2021/07/21 01:33:21;;;;;;;8.77;6.80;;;;;;;15.62;60.52;99764.28;5054407;28;20245;-93
2021/07/21 01:35:57;;;;;;;8.07;6.80;;;;;;;15.55;61.27;99760.91;5054538;28;20639;-92
2021/07/21 01:38:40;;;;;;;8.47;6.90;;;;;;;15.71;60.23;99763.59;5054738;28;20632;-93
2021/07/21 01:41:14;;;;;;;9.10;6.77;;;;;;;15.64;60.44;99771.06;5037687;28;20229;-93
2021/07/21 01:43:46;;;;;;;8.40;7.00;;;;;;;15.60;60.74;99769.09;5037823;28;20333;-92
2021/07/21 01:46:13;;;;;;;8.00;6.87;;;;;;;15.50;60.84;99753.53;5037164;28;20256;-91
2021/07/21 01:48:45;;;;;;;8.10;6.63;;;;;;;15.55;60.16;99764.44;5054373;28;20250;-93
2021/07/21 01:51:15;;;;;;;7.40;6.40;;;;;;;15.51;60.23;99757.91;5042386;28;20229;-91
2021/07/21 01:53:44;;;;;;;7.63;6.83;;;;;;;15.51;60.41;99760.59;5058014;28;20586;-93
2021/07/21 01:56:14;;;;;;;8.70;6.93;;;;;;;15.54;60.79;99762.00;5042301;28;20225;-93
2021/07/21 01:58:43;;;;;;;7.43;6.20;;;;;;;15.56;60.44;99771.50;5058382;28;20221;-92
2021/07/21 02:01:49;;;;;;;8.43;6.10;;;;;;;15.53;60.24;99769.28;4997817;28;20232;-93
2021/07/21 02:04:30;;;;;;;7.50;6.23;;;;;;;15.53;60.70;99765.78;4980759;28;20313;-92
2021/07/21 02:06:58;;;;;;;6.77;6.07;;;;;;;15.48;60.82;99760.25;5024294;28;20257;-92
2021/07/21 02:09:25;;;;;;;8.30;6.10;;;;;;;15.40;60.92;99761.47;5057553;28;20298;-92
2021/07/21 02:11:55;;;;;;;7.33;6.60;;;;;;;15.48;61.05;99760.25;5057917;28;20231;-93
2021/07/21 02:14:24;;;;;;;7.33;6.43;;;;;;;15.42;61.06;99757.50;5056951;28;20229;-92
2021/07/21 02:16:58;;;;;;;7.00;6.27;;;;;;;15.38;61.21;99760.94;5057896;28;20233;-93
2021/07/21 02:19:32;;;;;;;7.80;6.20;;;;;;;15.42;61.13;99767.47;5042036;28;20254;-91
2021/07/21 02:22:18;;;;;;;7.40;6.57;;;;;;;15.33;61.50;99767.06;5059626;28;20236;-92
2021/07/21 02:24:57;;;;;;;7.07;6.37;;;;;;;15.28;61.88;99761.59;5057425;28;20235;-91
2021/07/21 02:27:38;;;;;;;8.10;6.13;;;;;;;15.31;61.34;99760.28;5057412;28;20502;-92
2021/07/21 02:30:07;;;;;;;7.40;6.17;;;;;;;15.40;61.25;99765.00;5056696;28;20225;-92
2021/07/21 02:32:47;;;;;;;6.57;5.73;;;;;;;15.41;61.20;99768.53;5041332;28;20288;-91
2021/07/21 02:35:19;;;;;;;6.87;5.97;;;;;;;15.32;61.16;99760.03;5041025;28;20528;-93
2021/07/21 02:37:49;;;;;;;8.10;6.10;;;;;;;15.35;60.96;99764.13;5058207;28;20257;-92
2021/07/21 02:40:17;;;;;;;9.20;6.57;;;;;;;15.43;60.84;99769.09;5056861;28;20252;-92
2021/07/21 02:42:51;;;;;;;8.83;6.37;;;;;;;15.42;60.75;99751.28;5057070;28;20232;-93
2021/07/21 02:45:19;;;;;;;7.20;6.23;;;;;;;15.45;60.74;99758.84;5041222;28;20302;-92
2021/07/21 02:47:47;;;;;;;6.60;6.00;;;;;;;15.49;60.54;99764.59;5040561;28;20233;-92
2021/07/21 02:50:19;;;;;;;9.13;6.80;;;;;;;15.44;60.89;99760.75;5057329;28;20335;-91
2021/07/21 02:53:01;;;;;;;6.90;6.07;;;;;;;15.44;60.83;99766.13;5057015;28;20226;-91
2021/07/21 02:55:45;;;;;;;7.67;6.67;;;;;;;15.35;60.92;99759.53;5057052;28;20320;-92
2021/07/21 02:58:31;;;;;;;7.27;6.60;;;;;;;15.56;60.20;99768.78;5056652;28;20422;-92
2021/07/21 03:01:00;;;;;;;9.43;6.50;;;;;;;15.51;60.38;99773.28;5043069;28;20231;-91
2021/07/21 03:03:33;;;;;;;6.77;6.10;;;;;;;15.45;60.32;99758.84;5060547;28;20220;-91
2021/07/21 03:06:04;;;;;;;6.73;6.13;;;;;;;15.50;60.61;99772.44;5059809;28;20530;-91
2021/07/21 03:08:44;;;;;;;9.00;6.70;;;;;;;15.44;60.60;99771.53;5046266;28;20234;-92
2021/07/21 03:11:22;;;;;;;7.20;6.50;;;;;;;15.46;60.37;99773.19;5075095;28;20306;-92
2021/07/21 03:13:57;;;;;;;7.93;6.60;;;;;;;15.38;60.58;99774.44;5043599;28;20228;-93
2021/07/21 03:16:25;;;;;;;7.87;6.40;;;;;;;15.40;60.67;99777.69;5059588;28;20241;-93
2021/07/21 03:18:56;;;;;;;9.27;6.67;;;;;;;15.49;60.88;99791.59;5043663;28;20306;-91
2021/07/21 03:21:29;;;;;;;7.60;6.53;;;;;;;15.33;61.39;99785.97;5045105;28;20231;-92
2021/07/21 03:24:05;;;;;;;7.87;6.13;;;;;;;15.33;61.35;99782.44;5060821;28;20224;-92
2021/07/21 03:26:53;;;;;;;7.20;6.10;;;;;;;15.48;61.23;99787.25;5062669;28;20543;-92
2021/07/21 03:29:29;;;;;;;7.27;6.33;;;;;;;15.37;61.17;99786.28;5044784;28;20670;-93
2021/07/21 03:32:00;;;;;;;8.33;6.53;;;;;;;15.31;61.70;99793.47;5060184;28;20225;-92
2021/07/21 03:34:28;;;;;;;7.50;6.70;;;;;;;15.30;61.96;99796.44;5059481;28;20236;-92
2021/07/21 03:37:01;;;;;;;7.30;6.37;;;;;;;15.38;61.53;99813.03;5044871;28;20365;-92
2021/07/21 03:39:54;;;;;;;8.07;6.23;;;;;;;15.30;62.01;99813.44;5075993;28;20658;-92
2021/07/21 03:42:52;;;;;;;9.77;6.90;;;;;;;15.16;62.42;99805.94;5055403;28;20626;-92
2021/07/21 03:45:30;;;;;;;7.03;6.33;;;;;;;15.19;62.58;99825.16;5059941;28;20253;-92
2021/07/21 03:47:59;;;;;;;8.87;6.47;;;;;;;15.12;62.79;99818.25;5092469;28;20517;-93
2021/07/21 03:50:46;;;;;;;7.73;6.67;;;;;;;15.13;62.59;99823.41;5062046;28;20228;-93
2021/07/21 03:53:15;;;;;;;8.30;6.20;;;;;;;15.11;62.69;99817.47;5059464;28;20701;-91
2021/07/21 03:55:41;;;;;;;7.43;6.60;;;;;;;15.18;63.78;99822.69;5059256;28;20307;-92
2021/07/21 03:58:15;;;;;;;7.30;6.37;;;;;;;15.16;63.96;99819.44;5059742;28;20251;-91
2021/07/21 04:00:55;;;;;;;9.27;6.93;;;;;;;15.23;63.79;99822.78;5060447;28;20293;-91
2021/07/21 04:03:30;;;;;;;7.87;6.40;;;;;;;15.30;63.97;99821.53;5075460;28;20800;-92
2021/07/21 04:06:02;;;;;;;7.03;6.33;;;;;;;15.84;63.06;99821.84;5059100;28;20225;-91
2021/07/21 04:08:50;;;;;;;7.37;6.40;;;;;;;17.29;58.03;99829.16;5089472;28;20229;-91
2021/07/21 04:11:26;;;;;;;7.03;6.33;;;;;;;18.70;53.31;99840.03;5043381;28;20224;-92
2021/07/21 04:13:54;;;;;;;7.00;6.30;;;;;;;19.97;49.93;99887.09;5058877;28;20232;-93
2021/07/21 04:16:33;;;;;;;5.93;5.33;;;;;;;20.95;46.70;99857.31;5060124;28;20232;-92
2021/07/21 04:19:03;;;;;;;6.43;5.70;;;;;;;21.10;45.24;99840.88;5091883;28;20252;-90
2021/07/21 04:21:32;;;;;;;6.60;5.90;;;;;;;21.40;45.18;99839.06;5058794;28;20636;-91
2021/07/21 04:24:05;;;;;;;8.90;6.23;;;;;;;21.06;45.83;99826.22;5058961;28;20233;-91
2021/07/21 04:26:32;;;;;;;7.17;6.23;;;;;;;21.20;45.58;99822.88;5042305;28;20295;-91
2021/07/21 04:29:05;;;;;;;7.77;5.60;;;;;;;20.79;47.02;99835.94;5043786;28;20286;-90
2021/07/21 04:31:36;;;;;;;6.57;5.77;;;;;;;20.49;47.66;99835.00;5042693;28;20255;-90
2021/07/21 04:34:05;;;;;;;6.10;5.50;;;;;;;20.04;49.88;99840.56;5058514;28;20584;-92
2021/07/21 04:36:35;;;;;;;6.70;6.00;;;;;;;19.58;51.09;99837.97;5042557;28;20228;-91
2021/07/21 04:39:03;;;;;;;6.70;5.67;;;;;;;19.14;52.44;99832.22;5091930;28;20235;-90
2021/07/21 04:41:31;;;;;;;8.87;5.60;;;;;;;19.04;52.82;99831.38;5058681;28;20224;-92
2021/07/21 04:44:07;;;;;;;7.20;6.03;;;;;;;18.83;53.58;99841.41;5059546;28;20221;-90
2021/07/21 04:46:43;;;;;;;6.47;5.67;;;;;;;18.82;54.46;99835.16;5043986;28;20226;-91
2021/07/21 04:49:11;;;;;;;7.10;6.10;;;;;;;18.83;54.71;99847.66;5058671;28;20312;-92
2021/07/21 04:51:41;;;;;;;7.90;5.87;;;;;;;18.72;54.62;99845.16;5058911;28;20233;-90
2021/07/21 04:54:28;;;;;;;8.20;6.63;;;;;;;18.94;54.17;99847.69;5060466;28;20220;-89
2021/07/21 04:56:57;;;;;;;7.77;6.17;;;;;;;19.12;53.65;99852.59;5058698;28;20274;-91
2021/07/21 04:59:31;;;;;;;6.77;6.07;;;;;;;19.22;53.41;99852.59;5074565;28;20316;-89
2021/07/21 05:02:00;;;;;;;8.00;5.90;;;;;;;19.36;53.18;99859.91;5042183;28;20698;-89
2021/07/21 05:04:28;;;;;;;9.13;6.37;;;;;;;19.47;53.33;99865.41;5041372;28;20586;-90
2021/07/21 05:07:16;;;;;;;8.07;5.93;;;;;;;19.64;52.70;99865.94;5061043;28;20232;-90
2021/07/21 05:09:49;;;;;;;7.13;6.13;;;;;;;19.78;51.69;99867.03;5074923;28;20776;-90
2021/07/21 05:12:18;;;;;;;6.57;5.53;;;;;;;19.88;50.85;99866.16;5058021;28;20251;-90
2021/07/21 05:14:52;;;;;;;6.83;6.13;;;;;;;19.94;50.75;99876.78;5042593;28;20229;-90
2021/07/21 05:17:34;;;;;;;6.87;5.70;;;;;;;20.07;50.77;99869.94;5074656;28;20236;-90
2021/07/21 05:20:08;;;;;;;6.37;5.73;;;;;;;20.29;50.62;99881.31;5041947;28;20537;-89
2021/07/21 05:22:46;;;;;;;11.93;5.77;;;;;;;20.46;50.84;99881.00;5058219;28;20232;-88
2021/07/21 05:25:15;;;;;;;6.33;5.73;;;;;;;20.55;51.05;99882.06;5040495;28;20294;-90
2021/07/21 05:27:58;;;;;;;7.53;5.90;;;;;;;20.69;51.20;99874.09;5059494;28;20306;-88
2021/07/21 05:30:25;;;;;;;8.13;5.93;;;;;;;20.76;50.46;99872.72;5072811;28;20224;-88
2021/07/21 05:33:00;;;;;;;6.40;5.60;;;;;;;20.99;49.81;99874.75;5058044;28;20233;-90
2021/07/21 05:35:28;;;;;;;9.47;5.40;;;;;;;21.16;48.96;99889.91;5073078;28;20234;-89
2021/07/21 05:38:07;;;;;;;6.30;5.70;;;;;;;21.30;48.98;99888.19;5073106;28;20253;-89
2021/07/21 05:40:34;;;;;;;6.13;5.53;;;;;;;21.39;48.09;99887.31;5040115;28;20230;-90
2021/07/21 05:43:03;;;;;;;6.77;5.10;;;;;;;21.60;47.98;99898.06;5057317;28;20226;-88
2021/07/21 05:45:47;;;;;;;7.37;5.27;;;;;;;21.59;47.37;99890.97;5087925;28;20227;-88
2021/07/21 05:48:15;;;;;;;7.43;5.43;;;;;;;21.56;47.17;99892.34;5040088;28;20590;-87
2021/07/21 05:51:02;;;;;;;6.77;5.70;;;;;;;21.72;46.84;99899.31;5065951;28;20681;-90
2021/07/21 05:53:29;;;;;;;6.30;5.17;;;;;;;21.74;46.24;99899.03;5073033;28;20655;-89
2021/07/21 05:55:57;;;;;;;5.70;5.10;;;;;;;21.59;45.53;99899.16;5056644;28;20309;-90
2021/07/21 05:58:33;;;;;;;5.20;4.70;;;;;;;21.78;45.65;99898.16;5042029;28;20715;-89
2021/07/21 06:01:03;;;;;;;8.40;5.40;;;;;;;21.80;44.87;99909.59;5056948;28;20321;-88
2021/07/21 06:03:32;;;;;;;6.30;4.87;;;;;;;21.88;44.42;99905.44;5089486;28;20226;-90
2021/07/21 06:06:18;;;;;;;5.87;5.00;;;;;;;22.04;44.53;99906.13;5072518;28;20243;-90
2021/07/21 06:09:01;;;;;;;5.43;4.50;;;;;;;22.00;44.38;99907.81;5102896;28;20234;-89
2021/07/21 06:11:37;;;;;;;5.90;4.70;;;;;;;22.00;44.12;99907.81;5057591;28;20642;-89
2021/07/21 06:14:04;;;;;;;7.87;5.17;;;;;;;22.07;44.56;99898.16;5055702;28;20282;-88
2021/07/21 06:16:36;;;;;;;5.93;4.43;;;;;;;21.89;44.28;99907.88;5056982;28;20223;-89
2021/07/21 06:19:04;;;;;;;6.43;4.70;;;;;;;22.05;43.14;99902.28;5056540;28;20639;-88
2021/07/21 06:21:32;;;;;;;6.53;4.90;;;;;;;22.17;42.82;99908.16;5040054;28;20255;-89
2021/07/21 06:24:18;;;;;;;5.87;4.50;;;;;;;22.33;43.15;99912.38;5058616;28;20317;-89
2021/07/21 06:26:46;;;;;;;6.77;4.53;;;;;;;22.40;43.22;99915.53;5089488;28;20694;-88
2021/07/21 06:29:33;;;;;;;6.30;4.70;;;;;;;22.22;42.98;99913.56;5049320;28;20325;-87
2021/07/21 06:32:00;;;;;;;6.77;4.40;;;;;;;22.38;42.79;99901.41;5056584;28;20229;-86
2021/07/21 06:34:28;;;;;;;6.13;4.90;;;;;;;22.54;42.63;99907.47;5056412;28;20233;-87
2021/07/21 06:37:01;;;;;;;5.70;4.77;;;;;;;22.54;42.51;99910.19;5060609;28;20522;-87
2021/07/21 06:39:29;;;;;;;5.30;4.80;;;;;;;22.48;43.49;99914.13;5077087;28;20232;-90
2021/07/21 06:41:57;;;;;;;5.50;4.47;;;;;;;22.62;42.16;99907.66;5060359;28;20278;-89
2021/07/21 06:44:24;;;;;;;5.47;4.63;;;;;;;22.61;42.19;99914.22;5059280;28;20247;-89
2021/07/21 06:47:08;;;;;;;5.20;4.70;;;;;;;22.50;42.29;99907.25;5076016;28;20287;-89
2021/07/21 06:49:36;;;;;;;7.00;4.77;;;;;;;22.48;42.41;99922.31;5043471;28;20277;-88
2021/07/21 06:52:04;;;;;;;5.03;4.53;;;;;;;22.67;42.14;99917.72;5059670;28;20592;-89
2021/07/21 06:54:36;;;;;;;5.43;4.80;;;;;;;22.93;42.67;99924.50;5060823;28;20223;-89
2021/07/21 06:57:30;;;;;;;7.40;5.20;;;;;;;22.86;42.26;99918.59;5053941;28;20235;-87
2021/07/21 07:00:19;;;;;;;4.97;4.47;;;;;;;22.90;41.95;99916.91;5062337;28;20234;-88
2021/07/21 07:03:06;;;;;;;5.20;4.70;;;;;;;23.05;41.63;99911.19;5046024;28;20304;-88
2021/07/21 07:05:54;;;;;;;5.80;4.70;;;;;;;23.09;42.06;99916.91;5062110;28;20286;-87
2021/07/21 07:08:39;;;;;;;5.27;4.73;;;;;;;22.90;41.54;99916.91;5062593;28;20648;-88
2021/07/21 07:11:25;;;;;;;5.47;4.70;;;;;;;22.90;42.26;99911.44;5091216;28;20233;-86
2021/07/21 07:13:52;;;;;;;6.67;4.70;;;;;;;23.08;41.42;99899.69;5059780;28;20245;-87
2021/07/21 07:16:19;;;;;;;5.20;4.70;;;;;;;23.25;41.47;99910.09;5059731;28;20221;-88
2021/07/21 07:18:46;;;;;;;7.03;5.60;;;;;;;22.88;41.57;99924.56;5060060;28;20233;-89
2021/07/21 07:21:13;;;;;;;5.17;4.67;;;;;;;22.96;41.95;99912.16;5059682;28;20225;-88
2021/07/21 07:23:39;;;;;;;5.20;4.80;;;;;;;23.01;42.04;99901.97;5059604;28;20228;-88
2021/07/21 07:26:07;;;;;;;9.60;5.23;;;;;;;22.89;41.06;99912.53;5059261;28;20311;-89
2021/07/21 07:28:34;;;;;;;8.13;5.20;;;;;;;22.98;41.75;99907.22;5077400;28;20273;-89
2021/07/21 07:31:01;;;;;;;6.23;5.20;;;;;;;23.26;42.00;99909.00;5059263;28;20315;-89
2021/07/21 07:33:28;;;;;;;5.70;4.90;;;;;;;23.17;41.19;99919.78;5075894;28;20234;-89
2021/07/21 07:35:55;;;;;;;6.70;5.13;;;;;;;23.24;41.10;99917.47;5041797;28;20230;-88
2021/07/21 07:38:22;;;;;;;5.97;4.93;;;;;;;23.20;41.80;99901.97;5040768;28;20230;-89
2021/07/21 07:40:49;;;;;;;5.47;4.90;;;;;;;23.25;41.87;99916.38;5057561;28;20970;-88
2021/07/21 07:43:15;;;;;;;11.47;6.33;;;;;;;23.21;41.73;99901.69;5076766;28;20246;-88
2021/07/21 07:45:42;;;;;;;10.60;6.33;;;;;;;23.36;42.46;99916.22;5058539;28;20231;-89
2021/07/21 07:48:09;;;;;;;7.53;5.40;;;;;;;23.39;41.73;99891.03;5058082;28;20288;-87
2021/07/21 07:50:36;;;;;;;7.87;5.70;;;;;;;23.60;41.89;99911.50;5041784;28;20226;-88
2021/07/21 07:53:02;;;;;;;5.67;5.17;;;;;;;23.41;41.32;99908.78;5058557;28;20641;-86
2021/07/21 07:55:29;;;;;;;5.37;4.80;;;;;;;23.58;41.17;99914.53;5041761;28;20231;-88
2021/07/21 07:57:56;;;;;;;6.20;5.30;;;;;;;23.56;41.63;99911.28;5042171;28;20307;-88
2021/07/21 08:00:23;;;;;;;5.83;5.23;;;;;;;23.65;41.23;99905.97;5074209;28;20273;-89
2021/07/21 08:02:50;;;;;;;6.33;5.40;;;;;;;23.59;40.78;99910.69;5058536;28;20225;-89
2021/07/21 08:05:17;;;;;;;6.97;5.53;;;;;;;23.66;41.00;99902.91;5058167;28;20252;-88
2021/07/21 08:07:44;;;;;;;7.50;5.50;;;;;;;23.40;41.02;99915.34;5058203;28;20248;-88
2021/07/21 08:10:13;;;;;;;7.53;5.20;;;;;;;23.40;42.30;99898.13;5058245;28;20232;-87
2021/07/21 08:12:44;;;;;;;5.33;4.83;;;;;;;23.51;40.75;99914.09;5075570;28;20638;-89
2021/07/21 08:15:14;;;;;;;5.33;4.83;;;;;;;23.51;41.20;99905.91;5074757;28;20231;-88
2021/07/21 08:17:41;;;;;;;6.37;5.33;;;;;;;23.57;40.17;99907.44;5058858;28;20311;-86
2021/07/21 08:20:08;;;;;;;5.33;4.80;;;;;;;23.65;39.91;99908.69;5074528;28;20270;-88
2021/07/21 08:22:39;;;;;;;6.37;5.50;;;;;;;23.81;41.58;99909.22;5074144;28;20252;-87
2021/07/21 08:25:10;;;;;;;5.35;4.72;;;;;;;23.71;41.82;99907.47;5073139;28;20254;-88
2021/07/21 08:27:41;;;;;;;10.80;5.60;;;;;;;23.82;40.59;99891.69;5059147;28;20228;-88
2021/07/21 08:30:12;;;;;;;10.33;5.10;;;;;;;23.82;39.77;99900.72;5073229;28;20349;-88
2021/07/21 08:32:50;;;;;;;7.15;5.13;;;;;;;24.11;39.43;99908.69;5040558;28;20254;-87
2021/07/21 08:35:19;;;;;;;5.82;5.20;;;;;;;24.39;39.29;99918.59;5056751;28;20314;-88
2021/07/21 08:37:46;;;;;;;5.30;4.80;;;;;;;24.34;37.68;99906.91;5108006;28;20256;-87
2021/07/21 08:40:15;;;;;;;5.90;4.53;;;;;;;24.37;38.26;99923.53;5075066;28;20709;-88
2021/07/21 08:42:41;;;;;;;5.20;4.70;;;;;;;24.40;37.99;99911.97;5091714;28;20316;-87
2021/07/21 08:45:09;;;;;;;7.30;4.85;;;;;;;24.32;37.82;99920.91;5074605;28;20280;-86
2021/07/21 08:47:36;;;;;;;7.28;4.78;;;;;;;24.12;37.84;99907.59;5058123;28;20279;-89
2021/07/21 08:50:05;;;;;;;6.75;5.03;;;;;;;24.25;37.69;99914.22;5074271;28;20528;-87
2021/07/21 08:52:32;;;;;;;5.80;5.07;;;;;;;24.12;38.28;99908.38;5073709;28;20315;-86
2021/07/21 08:55:00;;;;;;;5.88;4.95;;;;;;;24.11;37.28;99922.38;5073790;28;20483;-88
2021/07/21 08:57:30;;;;;;;7.00;5.18;;;;;;;23.87;37.15;99913.50;5040709;28;20587;-85
2021/07/21 08:59:58;;;;;;;8.45;5.10;;;;;;;24.22;37.80;99918.34;5057744;28;20235;-87
2021/07/21 09:02:26;;;;;;;6.95;4.90;;;;;;;24.16;38.99;99919.59;5056887;28;20320;-88
2021/07/21 09:04:53;;;;;;;7.45;4.95;;;;;;;24.50;37.65;99936.44;5106717;28;20331;-88
2021/07/21 09:07:20;;;;;;;5.78;4.63;;;;;;;24.48;36.72;99924.97;5073900;28;20252;-86
2021/07/21 09:10:05;;;;;;;6.88;4.75;;;;;;;24.65;35.78;99926.28;5074214;28;20237;-84
2021/07/21 09:12:32;;;;;;;5.88;4.65;;;;;;;24.47;37.05;99917.88;5057167;28;20917;-88
2021/07/21 09:14:59;;;;;;;8.30;5.25;;;;;;;24.31;37.24;99932.97;5073449;28;20235;-87
2021/07/21 09:17:27;;;;;;;5.43;4.50;;;;;;;24.59;35.66;99922.03;5074017;28;20303;-87
2021/07/21 09:19:54;;;;;;;7.32;4.65;;;;;;;24.73;37.11;99915.41;5057569;28;20323;-85
2021/07/21 09:22:24;;;;;;;8.02;5.32;;;;;;;24.82;36.19;99910.84;5057480;28;20232;-88
2021/07/21 09:25:17;;;;;;;5.38;4.80;;;;;;;25.17;36.18;99916.69;5073693;28;20235;-86
2021/07/21 09:27:49;;;;;;;5.60;4.90;;;;;;;24.95;35.48;99901.03;5057796;28;20228;-87
2021/07/21 09:30:24;;;;;;;6.03;4.45;;;;;;;24.97;34.77;99917.94;5056589;28;20233;-87
2021/07/21 09:32:54;;;;;;;5.70;4.40;;;;;;;25.21;32.84;99915.78;5072617;28;20540;-86
2021/07/21 09:35:22;;;;;;;6.45;5.28;;;;;;;25.24;32.33;99897.91;5091052;28;20235;-86
2021/07/21 09:37:50;;;;;;;4.80;4.30;;;;;;;25.23;31.81;99908.06;5057951;28;20296;-86
2021/07/21 09:40:17;;;;;;;5.82;4.38;;;;;;;25.22;33.53;99916.59;5056949;28;20228;-88
2021/07/21 09:42:44;;;;;;;5.85;5.30;;;;;;;25.17;32.94;99900.25;5075515;28;20277;-87
2021/07/21 09:45:12;;;;;;;4.82;4.43;;;;;;;25.59;32.79;99909.97;5073953;28;20316;-88
2021/07/21 09:47:47;;;;;;;5.07;4.57;;;;;;;25.87;32.83;99905.97;5089822;28;21101;-86
2021/07/21 09:50:17;;;;;;;5.65;5.05;;;;;;;26.13;32.71;99906.91;5053117;28;20573;-85
2021/07/21 09:52:45;;;;;;;5.55;5.00;;;;;;;25.63;32.93;99905.47;5071880;28;20252;-88
2021/07/21 09:55:15;;;;;;;6.35;4.93;;;;;;;25.52;32.78;99915.06;5056032;28;20233;-85
2021/07/21 09:57:43;;;;;;;5.53;5.03;;;;;;;25.38;32.64;99902.19;5106463;28;20224;-87
2021/07/21 10:00:22;;;;;;;5.00;4.53;;;;;;;25.63;33.12;99917.25;5072362;28;20311;-87
2021/07/21 10:02:51;;;;;;;5.90;4.70;;;;;;;25.83;32.00;99896.75;5056572;28;20251;-86
2021/07/21 10:05:18;;;;;;;5.57;4.75;;;;;;;25.89;33.28;99900.97;5056279;28;20311;-86
2021/07/21 10:07:51;;;;;;;5.65;4.72;;;;;;;25.73;32.18;99900.56;5056433;28;20612;-87
2021/07/21 10:10:20;;;;;;;5.50;5.00;;;;;;;25.66;31.83;99900.16;5074812;28;20225;-86
2021/07/21 10:13:02;;;;;;;5.30;4.80;;;;;;;25.35;32.64;99899.25;5077952;28;20227;-88
2021/07/21 10:15:29;;;;;;;7.07;5.03;;;;;;;25.63;32.59;99900.81;5076613;28;20233;-87
2021/07/21 10:18:13;;;;;;;5.22;4.82;;;;;;;25.64;33.61;99896.13;5110638;28;20233;-88
2021/07/21 10:20:41;;;;;;;5.07;4.57;;;;;;;26.07;32.79;99897.19;5076272;28;20525;-86
2021/07/21 10:23:09;;;;;;;8.93;4.70;;;;;;;25.67;33.18;99893.56;5060113;28;20643;-85
2021/07/21 10:25:37;;;;;;;5.55;4.55;;;;;;;25.63;33.45;99889.00;5060228;28;20227;-87
2021/07/21 10:28:05;;;;;;;5.22;4.78;;;;;;;25.80;33.55;99892.66;5043333;28;20237;-86
2021/07/21 10:30:35;;;;;;;5.57;5.07;;;;;;;25.83;33.28;99899.47;5059623;28;20231;-87
2021/07/21 10:33:02;;;;;;;6.22;5.60;;;;;;;25.64;33.63;99896.13;5060374;28;20228;-87
2021/07/21 10:35:29;;;;;;;5.63;5.10;;;;;;;25.85;32.01;99894.47;5059429;28;20527;-86
2021/07/21 10:37:57;;;;;;;5.63;5.13;;;;;;;26.34;31.49;99904.44;5060246;28;20236;-87
2021/07/21 10:40:28;;;;;;;6.03;5.25;;;;;;;26.27;31.43;99880.19;5042819;28;20237;-87
2021/07/21 10:42:57;;;;;;;5.68;5.18;;;;;;;26.31;32.17;99893.28;5059893;28;20229;-87
2021/07/21 10:45:27;;;;;;;6.40;5.40;;;;;;;26.22;31.29;99885.81;5059701;28;20312;-86
2021/07/21 10:48:06;;;;;;;5.78;5.28;;;;;;;26.27;32.23;99893.09;5060192;28;20250;-85
2021/07/21 10:50:50;;;;;;;6.75;5.45;;;;;;;26.43;31.98;99898.97;5076755;28;20229;-88
2021/07/21 10:53:26;;;;;;;5.68;5.05;;;;;;;26.81;31.94;99888.25;5093353;28;20227;-86
2021/07/21 10:59:11;;;;;;;6.78;6.07;;;;;;;26.86;31.26;99880.72;5006640;28;20240;-83
2021/07/21 11:01:44;;;;;;;5.57;5.00;;;;;;;26.90;30.98;99881.69;5061838;28;20236;-85
2021/07/21 11:04:19;;;;;;;7.78;5.60;;;;;;;27.15;31.83;99880.91;5060335;28;20262;-85
2021/07/21 11:06:48;;;;;;;5.93;5.32;;;;;;;27.04;31.32;99900.78;5076113;28;20620;-87
2021/07/21 11:09:22;;;;;;;6.35;5.70;;;;;;;26.90;32.23;99892.69;5059708;28;20293;-87
2021/07/21 11:11:54;;;;;;;8.18;5.40;;;;;;;27.25;31.17;99881.72;5059243;28;20251;-86
2021/07/21 11:14:23;;;;;;;5.95;5.35;;;;;;;27.38;31.04;99878.78;5059415;28;20243;-86
2021/07/21 11:16:54;;;;;;;7.28;5.40;;;;;;;27.33;31.08;99880.91;5075833;28;20736;-86
2021/07/21 11:19:34;;;;;;;6.03;5.30;;;;;;;27.25;31.41;99882.50;5042756;28;20318;-87
2021/07/21 11:22:09;;;;;;;5.82;5.22;;;;;;;27.04;33.16;99879.59;5058433;28;20583;-88
2021/07/21 11:25:02;;;;;;;6.88;5.78;;;;;;;26.80;32.48;99881.94;5075569;28;20248;-87
2021/07/21 11:27:44;;;;;;;7.13;5.50;;;;;;;26.24;32.67;99872.59;5076560;28;20277;-87
2021/07/21 11:30:49;;;;;;;6.70;5.60;;;;;;;26.50;34.39;99864.41;5058868;28;20228;-87
2021/07/21 11:33:50;;;;;;;6.03;5.43;;;;;;;26.66;33.62;99867.53;5059970;28;20262;-88
2021/07/21 11:36:39;;;;;;;6.65;5.40;;;;;;;27.23;31.61;99872.97;5075481;28;20571;-88
2021/07/21 11:39:07;;;;;;;6.53;5.70;;;;;;;27.30;32.82;99865.00;5075711;28;20234;-87
2021/07/21 11:41:54;;;;;;;6.65;5.28;;;;;;;27.74;33.12;99872.94;5076113;28;20237;-85
2021/07/21 11:44:38;;;;;;;9.55;5.25;;;;;;;27.98;31.46;99875.13;5075651;28;20236;-86
2021/07/21 11:47:13;;;;;;;5.93;5.32;;;;;;;27.52;32.31;99870.38;5059236;28;20231;-87
2021/07/21 11:49:49;;;;;;;7.63;5.43;;;;;;;27.54;31.79;99860.66;5075413;28;20235;-85
2021/07/21 11:52:18;;;;;;;5.85;5.35;;;;;;;27.44;32.03;99860.97;5058507;28;20234;-87
2021/07/21 11:54:45;;;;;;;7.43;5.72;;;;;;;27.57;32.64;99868.28;5092353;28;20236;-87
2021/07/21 11:57:12;;;;;;;7.85;6.05;;;;;;;27.76;31.66;99856.09;5058789;28;20224;-87
2021/07/21 11:59:41;;;;;;;6.05;5.45;;;;;;;27.27;31.16;99871.19;5042871;28;20519;-86
2021/07/21 12:02:12;;;;;;;6.22;5.45;;;;;;;27.72;30.48;99858.66;5108735;28;20247;-87
2021/07/21 12:04:44;;;;;;;6.63;5.68;;;;;;;27.80;30.49;99857.88;5076522;28;20534;-88